createdAt,value
2019-03-27T00:00:53.570Z,11.77
2019-03-27T00:03:22.233Z,10.47
2019-03-27T00:05:50.902Z,11.80
2019-03-27T00:08:19.467Z,11.33
2019-03-27T00:10:48.531Z,11.17
2019-03-27T00:13:17.091Z,11.00
2019-03-27T00:15:45.695Z,11.03
2019-03-27T00:18:14.276Z,11.93
2019-03-27T00:20:42.834Z,12.70
2019-03-27T00:23:11.446Z,11.50
2019-03-27T00:25:40.157Z,10.30
2019-03-27T00:28:08.743Z,10.97
2019-03-27T00:30:37.404Z,10.97
2019-03-27T00:33:06.087Z,11.70
2019-03-27T00:35:34.727Z,12.67
2019-03-27T00:38:03.365Z,11.27
2019-03-27T00:40:32.070Z,11.37
2019-03-27T00:43:00.698Z,11.53
2019-03-27T00:45:29.299Z,10.93
2019-03-27T00:47:58.079Z,11.93
2019-03-27T00:50:26.775Z,11.77
2019-03-27T00:52:55.454Z,12.00
2019-03-27T00:55:24.083Z,11.40
2019-03-27T00:57:52.745Z,11.33
2019-03-27T01:00:30.238Z,12.70
2019-03-27T01:02:58.801Z,11.57
2019-03-27T01:05:27.535Z,12.27
2019-03-27T01:07:56.367Z,12.23
2019-03-27T01:10:25.038Z,13.43
2019-03-27T01:12:53.603Z,10.93
2019-03-27T01:15:22.202Z,12.53
2019-03-27T01:17:50.771Z,13.07
2019-03-27T01:20:19.330Z,12.13
2019-03-27T01:22:48.074Z,13.10
2019-03-27T01:25:16.714Z,11.77
2019-03-27T01:27:45.362Z,12.90
2019-03-27T01:30:14.614Z,13.60
2019-03-27T01:32:43.285Z,13.40
2019-03-27T01:35:12.019Z,12.93
2019-03-27T01:37:40.603Z,13.87
2019-03-27T01:40:09.902Z,12.13
2019-03-27T01:42:38.626Z,12.70
2019-03-27T01:45:09.182Z,13.93
2019-03-27T01:47:37.858Z,12.83
2019-03-27T01:50:08.215Z,14.37
2019-03-27T01:52:37.155Z,15.13
2019-03-27T01:55:06.943Z,13.70
2019-03-27T01:57:35.647Z,14.83
2019-03-27T02:00:08.922Z,14.30
2019-03-27T02:02:37.794Z,15.63
2019-03-27T02:05:07.505Z,13.40
2019-03-27T02:07:36.107Z,14.87
2019-03-27T02:10:06.413Z,14.57
2019-03-27T02:12:35.011Z,14.63
2019-03-27T02:15:05.291Z,14.83
2019-03-27T02:17:34.110Z,14.37
2019-03-27T02:20:02.762Z,15.10
2019-03-27T02:22:31.405Z,15.30
2019-03-27T02:24:59.989Z,14.63
2019-03-27T02:27:28.707Z,14.90
2019-03-27T02:29:57.226Z,15.57
2019-03-27T02:32:25.835Z,15.77
2019-03-27T02:34:54.396Z,17.07
2019-03-27T02:37:22.983Z,15.37
2019-03-27T02:39:51.565Z,17.40
2019-03-27T02:42:20.152Z,16.80
2019-03-27T02:44:48.830Z,16.30
2019-03-27T02:47:17.435Z,16.30
2019-03-27T02:49:46.075Z,15.87
2019-03-27T02:52:15.151Z,16.77
2019-03-27T02:54:43.815Z,17.80
2019-03-27T02:57:12.701Z,16.93
2019-03-27T02:59:41.523Z,17.37
2019-03-27T03:02:10.207Z,17.87
2019-03-27T03:04:39.323Z,18.27
2019-03-27T03:07:08.010Z,17.63
2019-03-27T03:09:36.784Z,18.50
2019-03-27T03:12:05.546Z,17.87
2019-03-27T03:14:34.115Z,18.23
2019-03-27T03:17:02.805Z,18.37
2019-03-27T03:19:31.707Z,17.73
2019-03-27T03:22:00.552Z,18.97
2019-03-27T03:24:29.123Z,17.97
2019-03-27T03:26:57.769Z,18.63
2019-03-27T03:29:29.274Z,19.17
2019-03-27T03:31:57.853Z,18.63
2019-03-27T03:34:26.740Z,19.13
2019-03-27T03:36:55.401Z,17.83
2019-03-27T03:39:24.187Z,20.43
2019-03-27T03:41:52.699Z,19.10
2019-03-27T03:44:21.361Z,20.10
2019-03-27T03:46:59.467Z,18.23
2019-03-27T03:49:20.290Z,19.37
2019-03-27T03:51:49.327Z,19.80
2019-03-27T03:54:18.934Z,19.23
2019-03-27T03:56:50.666Z,18.20
2019-03-27T03:59:22.418Z,19.87
2019-03-27T04:01:54.211Z,19.80
2019-03-27T04:04:23.580Z,18.87
2019-03-27T04:07:04.522Z,18.73
2019-03-27T04:09:33.177Z,18.47
2019-03-27T04:12:01.823Z,18.17
2019-03-27T04:14:30.550Z,19.30
2019-03-27T04:17:15.801Z,17.00
2019-03-27T04:19:29.503Z,18.17
2019-03-27T04:21:58.038Z,17.30
2019-03-27T04:24:26.722Z,16.63
2019-03-27T04:26:55.393Z,16.40
2019-03-27T04:29:23.987Z,15.30
2019-03-27T04:31:52.595Z,17.10
2019-03-27T04:34:21.222Z,16.60
2019-03-27T04:36:50.054Z,17.20
2019-03-27T04:39:18.663Z,17.67
2019-03-27T04:41:47.292Z,17.70
2019-03-27T04:44:16.033Z,17.17
2019-03-27T04:46:44.709Z,16.77
2019-03-27T04:49:13.532Z,18.37
2019-03-27T04:51:42.296Z,18.23
2019-03-27T04:54:10.986Z,17.87
2019-03-27T04:56:39.591Z,17.77
2019-03-27T04:59:08.268Z,17.30
2019-03-27T05:01:36.869Z,17.10
2019-03-27T05:04:06.703Z,16.03
2019-03-27T05:06:35.260Z,17.80
2019-03-27T05:09:05.014Z,16.83
2019-03-27T05:11:33.942Z,16.67
2019-03-27T05:14:02.598Z,16.40
2019-03-27T05:16:31.294Z,17.53
2019-03-27T05:18:59.882Z,18.07
2019-03-27T05:21:28.432Z,16.83
2019-03-27T05:23:57.028Z,16.37
2019-03-27T05:26:25.631Z,17.30
2019-03-27T05:28:54.214Z,17.47
2019-03-27T05:31:23.019Z,18.23
2019-03-27T05:33:51.696Z,18.03
2019-03-27T05:36:20.241Z,17.43
2019-03-27T05:38:48.827Z,19.33
2019-03-27T05:41:17.403Z,17.47
2019-03-27T05:43:45.966Z,18.47
2019-03-27T05:46:14.704Z,18.57
2019-03-27T05:48:43.266Z,18.63
2019-03-27T05:51:12.025Z,17.40
2019-03-27T05:53:40.566Z,19.23
2019-03-27T05:56:09.239Z,17.63
2019-03-27T05:58:57.274Z,18.47
2019-03-27T06:01:26.018Z,19.70
2019-03-27T06:03:54.635Z,18.77
2019-03-27T06:06:23.264Z,20.10
2019-03-27T06:08:52.018Z,20.13
2019-03-27T06:11:20.663Z,20.20
2019-03-27T06:13:49.331Z,19.37
2019-03-27T06:16:18.341Z,19.40
2019-03-27T06:18:46.901Z,19.90
2019-03-27T06:21:15.485Z,19.90
2019-03-27T06:23:44.104Z,21.03
2019-03-27T06:26:12.626Z,19.10
2019-03-27T06:29:00.619Z,20.03
2019-03-27T06:31:29.154Z,19.17
2019-03-27T06:33:57.757Z,20.70
2019-03-27T06:36:26.395Z,21.30
2019-03-27T06:38:55.159Z,19.73
2019-03-27T06:41:23.853Z,20.47
2019-03-27T06:43:52.456Z,21.43
2019-03-27T06:46:21.015Z,21.50
2019-03-27T06:48:50.156Z,20.90
2019-03-27T06:51:18.900Z,20.63
2019-03-27T06:53:47.454Z,20.03
2019-03-27T06:56:16.096Z,21.13
2019-03-27T06:58:54.628Z,20.83
2019-03-27T07:01:15.026Z,19.93
2019-03-27T07:03:43.617Z,21.30
2019-03-27T07:06:12.186Z,20.93
2019-03-27T07:08:40.800Z,20.37
2019-03-27T07:11:09.791Z,23.13
2019-03-27T07:13:38.466Z,20.47
2019-03-27T07:16:07.027Z,21.07
2019-03-27T07:18:40.381Z,23.70
2019-03-27T07:21:06.074Z,21.63
2019-03-27T07:23:34.967Z,21.80
2019-03-27T07:26:03.667Z,21.33
2019-03-27T07:28:32.501Z,23.17
2019-03-27T07:31:01.093Z,21.80
2019-03-27T07:33:29.734Z,21.77
2019-03-27T07:35:58.474Z,22.10
2019-03-27T07:38:27.049Z,20.97
2019-03-27T07:40:55.654Z,23.00
2019-03-27T07:43:27.534Z,21.27
2019-03-27T07:45:56.186Z,19.97
2019-03-27T07:48:24.740Z,22.03
2019-03-27T07:50:53.455Z,21.63
2019-03-27T07:53:22.642Z,22.00
2019-03-27T07:55:51.567Z,20.53
2019-03-27T07:58:20.228Z,20.33
2019-03-27T08:00:48.854Z,21.03
2019-03-27T08:03:17.659Z,21.83
2019-03-27T08:05:46.218Z,21.47
2019-03-27T08:08:14.799Z,22.03
2019-03-27T08:10:43.412Z,21.20
2019-03-27T08:13:12.378Z,21.43
2019-03-27T08:15:41.108Z,21.53
2019-03-27T08:18:10.025Z,21.10
2019-03-27T08:20:39.286Z,19.57
2019-03-27T08:23:07.884Z,19.97
2019-03-27T08:25:36.490Z,20.20
2019-03-27T08:28:05.246Z,20.37
2019-03-27T08:30:33.956Z,19.80
2019-03-27T08:33:02.700Z,18.43
2019-03-27T08:35:31.379Z,20.47
2019-03-27T08:38:00.300Z,19.30
2019-03-27T08:40:28.962Z,19.93
2019-03-27T08:42:57.713Z,19.47
2019-03-27T08:45:26.565Z,18.87
2019-03-27T08:47:55.574Z,18.73
2019-03-27T08:50:24.218Z,19.27
2019-03-27T08:52:52.909Z,20.03
2019-03-27T08:55:21.550Z,17.63
2019-03-27T08:57:50.320Z,21.00
2019-03-27T09:00:21.979Z,19.57
2019-03-27T09:02:50.587Z,23.83
2019-03-27T09:05:19.553Z,19.67
2019-03-27T09:07:48.105Z,19.67
2019-03-27T09:10:17.154Z,20.00
2019-03-27T09:12:45.840Z,19.83
2019-03-27T09:15:16.269Z,19.07
2019-03-27T09:17:45.031Z,18.50
2019-03-27T09:20:14.232Z,19.17
2019-03-27T09:22:44.268Z,17.03
2019-03-27T09:25:14.246Z,17.63
2019-03-27T09:27:42.959Z,17.90
2019-03-27T09:30:13.343Z,17.13
2019-03-27T09:32:41.971Z,15.30
2019-03-27T09:35:10.921Z,13.07
2019-03-27T09:37:39.552Z,12.17
2019-03-27T09:40:08.949Z,11.20
2019-03-27T09:42:38.830Z,11.83
2019-03-27T09:45:10.036Z,12.87
2019-03-27T09:47:38.869Z,11.40
2019-03-27T09:50:08.002Z,11.40
2019-03-27T09:52:36.611Z,9.80
2019-03-27T09:55:06.672Z,9.57
2019-03-27T09:57:55.119Z,9.27
2019-03-27T10:00:41.966Z,11.07
2019-03-27T10:03:10.548Z,8.83
2019-03-27T10:05:39.476Z,8.93
2019-03-27T10:08:08.095Z,8.07
2019-03-27T10:10:36.711Z,7.83
2019-03-27T10:13:05.775Z,7.10
2019-03-27T10:15:34.458Z,7.87
2019-03-27T10:18:03.149Z,8.47
2019-03-27T10:20:32.003Z,9.37
2019-03-27T10:23:00.600Z,8.47
2019-03-27T10:25:29.581Z,8.23
2019-03-27T10:28:00.110Z,7.97
2019-03-27T10:30:28.900Z,8.20
2019-03-27T10:32:57.473Z,8.50
2019-03-27T10:35:26.272Z,8.50
2019-03-27T10:37:55.114Z,8.43
2019-03-27T10:40:23.795Z,8.20
2019-03-27T10:42:52.434Z,7.83
2019-03-27T10:45:21.160Z,7.97
2019-03-27T10:47:49.806Z,8.03
2019-03-27T10:50:20.527Z,7.70
2019-03-27T10:52:49.162Z,8.47
2019-03-27T10:55:17.737Z,8.63
2019-03-27T10:57:46.368Z,7.97
2019-03-27T11:00:15.771Z,7.87
2019-03-27T11:02:45.996Z,7.17
2019-03-27T11:05:16.187Z,7.10
2019-03-27T11:07:44.753Z,7.17
2019-03-27T11:10:14.064Z,6.40
2019-03-27T11:12:42.790Z,6.30
2019-03-27T11:15:11.681Z,6.70
2019-03-27T11:17:42.219Z,7.07
2019-03-27T11:20:11.345Z,6.73
2019-03-27T11:22:41.702Z,6.10
2019-03-27T11:25:11.283Z,6.30
2019-03-27T11:27:39.919Z,5.07
2019-03-27T11:30:11.867Z,5.23
2019-03-27T11:32:59.928Z,5.43
2019-03-27T11:35:28.799Z,4.80
2019-03-27T11:37:57.530Z,4.57
2019-03-27T11:40:27.116Z,4.00
2019-03-27T11:42:55.878Z,3.93
2019-03-27T11:45:24.814Z,4.13
2019-03-27T11:47:53.443Z,4.70
2019-03-27T11:50:22.190Z,4.20
2019-03-27T11:53:10.861Z,3.53
2019-03-27T11:55:39.649Z,3.87
2019-03-27T11:58:08.362Z,3.93
2019-03-27T12:00:37.097Z,4.23
2019-03-27T12:03:05.948Z,3.87
2019-03-27T12:05:36.644Z,4.30
2019-03-27T12:08:05.465Z,4.30
2019-03-27T12:10:34.070Z,3.70
2019-03-27T12:13:03.022Z,4.10
2019-03-27T12:15:43.429Z,4.30
2019-03-27T12:18:13.357Z,4.03
2019-03-27T12:20:43.377Z,5.00
2019-03-27T12:23:12.733Z,3.97
2019-03-27T12:25:41.394Z,3.70
2019-03-27T12:28:10.051Z,3.50
2019-03-27T12:30:38.773Z,4.30
2019-03-27T12:33:07.403Z,4.13
2019-03-27T12:35:36.006Z,3.20
2019-03-27T12:38:04.942Z,3.77
2019-03-27T12:40:34.835Z,3.63
2019-03-27T12:43:03.777Z,3.90
2019-03-27T12:45:32.869Z,4.10
2019-03-27T12:48:04.947Z,4.23
2019-03-27T12:50:35.075Z,4.73
2019-03-27T12:53:05.617Z,4.30
2019-03-27T12:55:34.272Z,4.40
2019-03-27T12:58:03.843Z,5.07
2019-03-27T13:00:32.721Z,4.30
2019-03-27T13:03:02.866Z,4.70
2019-03-27T13:05:31.651Z,3.87
2019-03-27T13:08:00.235Z,4.57
2019-03-27T13:10:28.960Z,4.77
2019-03-27T13:12:57.658Z,4.43
2019-03-27T13:15:46.935Z,4.27
2019-03-27T13:18:16.590Z,4.00
2019-03-27T13:20:45.349Z,4.27
2019-03-27T13:23:14.093Z,4.70
2019-03-27T13:25:42.763Z,4.33
2019-03-27T13:28:11.523Z,4.37
2019-03-27T13:30:40.268Z,4.83
2019-03-27T13:33:10.368Z,4.17
2019-03-27T13:35:39.162Z,4.90
2019-03-27T13:38:07.759Z,4.70
2019-03-27T13:40:36.372Z,4.73
2019-03-27T13:43:05.907Z,4.63
2019-03-27T13:45:34.691Z,4.47
2019-03-27T13:48:03.526Z,4.30
2019-03-27T13:50:32.174Z,4.63
2019-03-27T13:53:01.713Z,4.83
2019-03-27T13:55:30.382Z,4.80
2019-03-27T13:57:59.092Z,4.90
2019-03-27T14:00:27.816Z,4.43
2019-03-27T14:02:56.547Z,5.07
2019-03-27T14:05:26.770Z,5.07
2019-03-27T14:07:55.990Z,4.57
2019-03-27T14:10:25.118Z,4.30
2019-03-27T14:12:53.829Z,4.97
2019-03-27T14:15:22.874Z,5.00
2019-03-27T14:17:51.513Z,4.40
2019-03-27T14:20:20.583Z,4.23
2019-03-27T14:22:49.600Z,4.10
2019-03-27T14:25:21.803Z,4.57
2019-03-27T14:27:48.960Z,4.20
2019-03-27T14:30:29.407Z,4.37
2019-03-27T14:32:59.066Z,4.23
2019-03-27T14:35:27.732Z,3.60
2019-03-27T14:37:56.300Z,4.20
2019-03-27T14:40:24.987Z,4.00
2019-03-27T14:42:54.117Z,4.67
2019-03-27T14:45:22.840Z,4.20
2019-03-27T14:47:51.424Z,4.33
2019-03-27T14:50:20.161Z,4.23
2019-03-27T14:52:48.833Z,4.07
2019-03-27T14:55:17.587Z,4.20
2019-03-27T14:57:46.201Z,3.90
2019-03-27T15:00:15.386Z,4.43
2019-03-27T15:02:44.195Z,4.10
2019-03-27T15:05:13.874Z,4.03
2019-03-27T15:07:42.614Z,3.43
2019-03-27T15:10:11.685Z,4.10
2019-03-27T15:12:59.747Z,3.33
2019-03-27T15:15:28.455Z,3.87
2019-03-27T15:17:57.308Z,3.73
2019-03-27T15:20:26.342Z,4.13
2019-03-27T15:22:54.992Z,3.60
2019-03-27T15:25:24.767Z,4.00
2019-03-27T15:27:57.638Z,3.80
2019-03-27T15:30:26.288Z,4.17
2019-03-27T15:32:56.845Z,3.40
2019-03-27T15:35:26.542Z,3.47
2019-03-27T15:37:57.082Z,3.47
2019-03-27T15:40:42.795Z,3.67
2019-03-27T15:43:14.690Z,3.30
2019-03-27T15:45:43.438Z,3.43
2019-03-27T15:48:12.236Z,3.67
2019-03-27T15:50:53.825Z,3.50
2019-03-27T15:53:11.246Z,3.37
2019-03-27T15:55:40.730Z,3.30
2019-03-27T15:58:09.645Z,3.43
2019-03-27T16:00:38.479Z,3.17
2019-03-27T16:03:26.578Z,3.20
2019-03-27T16:05:55.186Z,3.10
2019-03-27T16:08:43.183Z,3.40
2019-03-27T16:11:11.905Z,2.67
2019-03-27T16:13:40.463Z,3.00
2019-03-27T16:16:09.218Z,3.40
2019-03-27T16:18:37.818Z,3.03
2019-03-27T16:21:07.060Z,2.90
2019-03-27T16:23:35.760Z,3.97
2019-03-27T16:26:04.500Z,3.20
2019-03-27T16:28:33.067Z,3.10
2019-03-27T16:31:01.702Z,3.10
2019-03-27T16:33:30.348Z,3.00
2019-03-27T16:35:58.973Z,3.23
2019-03-27T16:38:27.682Z,3.00
2019-03-27T16:40:56.373Z,2.83
2019-03-27T16:43:26.692Z,3.13
2019-03-27T16:45:55.379Z,3.10
2019-03-27T16:48:24.073Z,3.03
2019-03-27T16:50:52.712Z,3.53
2019-03-27T16:53:21.429Z,3.10
2019-03-27T16:56:02.600Z,2.70
2019-03-27T16:58:31.285Z,2.60
2019-03-27T17:00:59.842Z,3.33
2019-03-27T17:03:28.584Z,2.60
2019-03-27T17:05:57.207Z,3.33
2019-03-27T17:08:25.798Z,2.67
2019-03-27T17:10:54.428Z,2.60
2019-03-27T17:13:23.043Z,3.40
2019-03-27T17:15:51.678Z,3.43
2019-03-27T17:18:20.234Z,3.13
2019-03-27T17:20:48.927Z,3.27
2019-03-27T17:23:18.908Z,3.03
2019-03-27T17:25:48.357Z,2.80
2019-03-27T17:28:17.156Z,3.33
2019-03-27T17:30:46.531Z,3.17
2019-03-27T17:33:15.218Z,3.30
2019-03-27T17:35:43.838Z,3.10
2019-03-27T17:38:33.003Z,3.50
2019-03-27T17:41:01.610Z,3.27
2019-03-27T17:43:30.221Z,3.60
2019-03-27T17:45:58.792Z,3.30
2019-03-27T17:48:27.419Z,3.50
2019-03-27T17:50:56.288Z,2.97
2019-03-27T17:53:31.599Z,3.10
2019-03-27T17:55:55.278Z,3.80
2019-03-27T17:58:23.943Z,3.00
2019-03-27T18:00:53.106Z,3.40
2019-03-27T18:03:21.830Z,3.20
2019-03-27T18:05:50.486Z,3.30
2019-03-27T18:08:19.233Z,3.63
2019-03-27T18:10:47.855Z,3.83
2019-03-27T18:13:16.667Z,3.50
2019-03-27T18:15:45.531Z,3.50
2019-03-27T18:18:14.156Z,3.97
2019-03-27T18:21:02.154Z,3.97
2019-03-27T18:23:40.003Z,5.37
2019-03-27T18:26:01.002Z,3.63
2019-03-27T18:28:29.862Z,3.70
2019-03-27T18:30:58.852Z,4.00
2019-03-27T18:33:27.525Z,4.20
2019-03-27T18:35:56.168Z,4.50
2019-03-27T18:38:24.765Z,4.57
2019-03-27T18:40:53.346Z,4.07
2019-03-27T18:43:22.220Z,5.60
2019-03-27T18:45:50.904Z,4.93
2019-03-27T18:48:19.463Z,5.63
2019-03-27T18:50:48.143Z,5.87
2019-03-27T18:53:16.758Z,5.67
2019-03-27T18:55:45.347Z,4.93
2019-03-27T18:58:14.001Z,4.87
2019-03-27T19:00:42.673Z,5.63
2019-03-27T19:03:12.648Z,6.07
2019-03-27T19:05:41.394Z,6.20
2019-03-27T19:08:12.042Z,6.07
2019-03-27T19:10:40.643Z,6.37
2019-03-27T19:13:09.326Z,6.00
2019-03-27T19:15:37.962Z,5.57
2019-03-27T19:18:06.638Z,7.13
2019-03-27T19:20:35.256Z,5.80
2019-03-27T19:23:04.095Z,7.10
2019-03-27T19:25:32.709Z,6.90
2019-03-27T19:28:01.326Z,6.77
2019-03-27T19:30:30.176Z,7.57
2019-03-27T19:32:58.991Z,6.53
2019-03-27T19:35:27.574Z,6.70
2019-03-27T19:37:56.341Z,6.37
2019-03-27T19:40:24.962Z,6.70
2019-03-27T19:42:53.547Z,6.10
2019-03-27T19:45:22.164Z,7.50
2019-03-27T19:47:50.977Z,8.00
2019-03-27T19:50:19.530Z,7.57
2019-03-27T19:52:48.140Z,8.73
2019-03-27T19:55:16.755Z,6.80
2019-03-27T19:57:45.359Z,7.20
2019-03-27T20:00:15.151Z,6.47
2019-03-27T20:02:43.782Z,7.27
2019-03-27T20:05:12.904Z,7.70
2019-03-27T20:07:41.463Z,8.13
2019-03-27T20:10:10.589Z,7.90
2019-03-27T20:12:39.374Z,6.23
2019-03-27T20:15:12.217Z,7.20
2019-03-27T20:17:39.250Z,6.97
2019-03-27T20:20:09.313Z,6.73
2019-03-27T20:22:37.956Z,7.03
2019-03-27T20:25:08.059Z,6.60
2019-03-27T20:27:36.645Z,8.53
2019-03-27T20:30:17.564Z,6.80
2019-03-27T20:32:46.254Z,7.57
2019-03-27T20:35:14.991Z,7.13
2019-03-27T20:37:43.792Z,7.20
2019-03-27T20:40:15.588Z,7.17
2019-03-27T20:42:44.222Z,7.03
2019-03-27T20:45:13.332Z,7.30
2019-03-27T20:47:41.890Z,7.33
2019-03-27T20:50:11.104Z,7.63
2019-03-27T20:52:39.701Z,9.77
2019-03-27T20:55:09.647Z,8.33
2019-03-27T20:57:38.239Z,7.33
2019-03-27T21:00:08.285Z,8.70
2019-03-27T21:02:36.966Z,8.13
2019-03-27T21:05:07.170Z,7.80
2019-03-27T21:07:35.881Z,7.17
2019-03-27T21:10:06.716Z,7.87
2019-03-27T21:12:35.857Z,8.40
2019-03-27T21:15:07.589Z,6.83
2019-03-27T21:17:36.267Z,7.97
2019-03-27T21:20:07.277Z,7.43
2019-03-27T21:22:36.087Z,7.43
2019-03-27T21:25:13.834Z,7.87
2019-03-27T21:27:42.507Z,8.23
2019-03-27T21:30:12.146Z,8.20
2019-03-27T21:32:41.121Z,8.50
2019-03-27T21:35:09.848Z,7.87
2019-03-27T21:37:38.397Z,7.67
2019-03-27T21:40:08.771Z,8.30
2019-03-27T21:42:37.322Z,7.87
2019-03-27T21:45:09.839Z,7.50
2019-03-27T21:47:38.961Z,8.20
2019-03-27T21:50:08.438Z,7.17
2019-03-27T21:52:37.175Z,7.77
2019-03-27T21:55:07.022Z,7.60
2019-03-27T21:57:35.713Z,8.00
2019-03-27T22:00:06.519Z,7.47
2019-03-27T22:02:35.278Z,7.43
2019-03-27T22:05:04.881Z,7.47
2019-03-27T22:07:33.697Z,7.80
2019-03-27T22:10:02.284Z,8.00
2019-03-27T22:12:30.854Z,8.27
2019-03-27T22:14:59.529Z,7.13
2019-03-27T22:17:28.172Z,8.40
2019-03-27T22:19:56.796Z,9.50
2019-03-27T22:22:25.378Z,9.77
2019-03-27T22:24:53.984Z,7.13
2019-03-27T22:27:22.566Z,7.47
2019-03-27T22:29:51.180Z,8.77
2019-03-27T22:32:19.740Z,9.17
2019-03-27T22:34:49.041Z,9.67
2019-03-27T22:37:17.654Z,9.30
2019-03-27T22:39:46.326Z,9.40
2019-03-27T22:42:15.021Z,8.73
2019-03-27T22:44:43.710Z,8.50
2019-03-27T22:47:12.330Z,8.30
2019-03-27T22:49:40.936Z,8.07
2019-03-27T22:52:09.653Z,8.30
2019-03-27T22:54:38.326Z,9.40
2019-03-27T22:57:07.087Z,9.33
2019-03-27T22:59:35.628Z,9.23
2019-03-27T23:02:04.751Z,8.30
2019-03-27T23:04:33.303Z,8.17
2019-03-27T23:07:02.094Z,8.63
2019-03-27T23:09:30.731Z,8.90
2019-03-27T23:12:00.703Z,8.83
2019-03-27T23:14:29.380Z,8.87
2019-03-27T23:16:58.052Z,8.57
2019-03-27T23:19:26.685Z,9.13
2019-03-27T23:21:55.316Z,8.67
2019-03-27T23:24:23.878Z,9.23
2019-03-27T23:26:52.670Z,8.80
2019-03-27T23:29:21.171Z,9.17
2019-03-27T23:31:49.726Z,8.77
2019-03-27T23:34:18.322Z,8.37
2019-03-27T23:36:46.874Z,8.20
2019-03-27T23:39:17.026Z,9.23
2019-03-27T23:41:45.610Z,9.43
2019-03-27T23:44:14.298Z,8.60
2019-03-27T23:46:42.995Z,8.17
2019-03-27T23:49:11.641Z,8.57
2019-03-27T23:51:40.265Z,8.27
2019-03-27T23:54:08.838Z,8.13
2019-03-27T23:56:37.377Z,9.17
2019-03-27T23:59:06.111Z,8.63
